createdAt,value
2017-10-16T00:00:02.517Z,20.40
2017-10-16T00:02:29.199Z,20.83
2017-10-16T00:04:55.886Z,25.90
2017-10-16T00:07:22.572Z,27.00
2017-10-16T00:09:49.220Z,27.73
2017-10-16T00:12:15.899Z,26.67
2017-10-16T00:14:42.564Z,31.77
2017-10-16T00:17:09.237Z,36.47
2017-10-16T00:19:35.890Z,35.77
2017-10-16T00:22:02.533Z,32.43
2017-10-16T00:24:29.201Z,28.13
2017-10-16T00:26:55.901Z,26.03
2017-10-16T00:29:22.549Z,23.63
2017-10-16T00:31:49.228Z,23.70
2017-10-16T00:34:15.888Z,24.43
2017-10-16T00:36:42.539Z,21.20
2017-10-16T00:39:09.207Z,23.27
2017-10-16T00:41:35.871Z,22.40
2017-10-16T00:44:02.544Z,24.00
2017-10-16T00:46:29.197Z,22.87
2017-10-16T00:48:55.903Z,24.00
2017-10-16T00:51:22.580Z,25.80
2017-10-16T00:53:49.233Z,23.40
2017-10-16T00:56:15.940Z,22.40
2017-10-16T00:58:42.600Z,22.70
2017-10-16T01:01:09.253Z,25.43
2017-10-16T01:03:35.924Z,20.60
2017-10-16T01:06:02.594Z,20.90
2017-10-16T01:08:29.280Z,20.97
2017-10-16T01:10:55.949Z,22.50
2017-10-16T01:13:22.631Z,21.70
2017-10-16T01:15:49.288Z,21.37
2017-10-16T01:18:15.970Z,26.87
2017-10-16T01:20:42.651Z,36.03
2017-10-16T01:23:09.315Z,28.40
2017-10-16T01:25:36.010Z,37.47
2017-10-16T01:28:02.665Z,31.17
2017-10-16T01:30:29.323Z,32.33
2017-10-16T01:32:56.015Z,34.60
2017-10-16T01:35:22.670Z,32.73
2017-10-16T01:37:49.350Z,34.90
2017-10-16T01:40:16.033Z,34.67
2017-10-16T01:42:42.699Z,38.13
2017-10-16T01:45:09.361Z,39.83
2017-10-16T01:47:36.024Z,37.50
2017-10-16T01:50:02.682Z,39.63
2017-10-16T01:52:29.356Z,36.50
2017-10-16T01:54:56.017Z,34.80
2017-10-16T01:57:22.676Z,33.77
2017-10-16T01:59:49.362Z,35.00
2017-10-16T02:02:16.041Z,38.10
2017-10-16T02:04:42.693Z,36.00
2017-10-16T02:07:09.351Z,35.77
2017-10-16T02:09:36.020Z,39.40
2017-10-16T02:12:02.676Z,36.87
2017-10-16T02:14:29.343Z,38.70
2017-10-16T02:23:38.424Z,42.57
2017-10-16T02:26:05.075Z,45.47
2017-10-16T02:28:31.751Z,42.97
2017-10-16T02:30:58.428Z,41.27
2017-10-16T02:33:25.107Z,42.73
2017-10-16T02:35:51.769Z,40.03
2017-10-16T02:38:18.461Z,41.63
2017-10-16T02:40:45.111Z,35.70
2017-10-16T02:43:11.768Z,36.23
2017-10-16T02:45:38.457Z,33.67
2017-10-16T02:48:05.166Z,32.87
2017-10-16T02:50:31.819Z,27.77
2017-10-16T02:52:58.477Z,25.10
2017-10-16T02:55:25.168Z,24.67
2017-10-16T02:57:51.829Z,25.00
2017-10-16T03:00:18.481Z,25.13
2017-10-16T03:02:45.148Z,25.97
2017-10-16T03:05:11.809Z,28.23
2017-10-16T03:07:38.513Z,31.50
2017-10-16T03:10:05.170Z,32.60
2017-10-16T03:12:32.039Z,29.97
2017-10-16T03:14:58.758Z,28.80
2017-10-16T03:17:25.417Z,28.20
2017-10-16T03:19:52.110Z,27.57
2017-10-16T03:22:18.804Z,41.10
2017-10-16T03:24:45.456Z,31.40
2017-10-16T03:27:12.158Z,25.50
2017-10-16T03:29:38.809Z,21.00
2017-10-16T03:32:05.471Z,18.30
2017-10-16T03:34:32.144Z,17.93
2017-10-16T03:36:58.811Z,20.30
2017-10-16T03:39:25.488Z,20.90
2017-10-16T03:41:52.137Z,20.17
2017-10-16T03:44:18.792Z,19.10
2017-10-16T03:46:45.482Z,19.23
2017-10-16T03:49:12.366Z,19.20
2017-10-16T03:51:39.217Z,20.80
2017-10-16T03:54:05.948Z,19.80
2017-10-16T03:56:32.596Z,18.40
2017-10-16T03:58:59.244Z,20.37
2017-10-16T04:01:25.908Z,18.07
2017-10-16T04:03:53.320Z,16.27
2017-10-16T04:06:19.993Z,20.60
2017-10-16T04:08:46.641Z,19.37
2017-10-16T04:11:13.294Z,21.10
2017-10-16T04:13:39.981Z,21.73
2017-10-16T04:16:06.649Z,21.60
2017-10-16T04:18:33.327Z,22.47
2017-10-16T04:20:59.986Z,21.70
2017-10-16T04:23:26.702Z,21.03
2017-10-16T04:25:53.357Z,19.70
2017-10-16T04:28:20.012Z,20.33
2017-10-16T04:30:46.688Z,21.90
2017-10-16T04:33:13.341Z,25.77
2017-10-16T04:35:40.022Z,34.80
2017-10-16T04:38:06.697Z,20.90
2017-10-16T04:40:33.360Z,19.87
2017-10-16T04:43:00.035Z,19.20
2017-10-16T04:45:26.701Z,22.27
2017-10-16T04:47:53.380Z,21.27
2017-10-16T04:50:20.032Z,21.47
2017-10-16T04:52:46.723Z,20.03
2017-10-16T04:55:13.384Z,19.13
2017-10-16T04:57:40.077Z,22.40
2017-10-16T05:00:06.732Z,23.50
2017-10-16T05:02:33.399Z,21.80
2017-10-16T05:05:00.073Z,22.70
2017-10-16T05:07:26.765Z,21.90
2017-10-16T05:09:53.440Z,21.03
2017-10-16T05:12:20.086Z,24.70
2017-10-16T05:14:46.792Z,24.80
2017-10-16T05:17:13.454Z,25.73
2017-10-16T05:19:40.113Z,24.90
2017-10-16T05:22:06.815Z,26.80
2017-10-16T05:24:33.476Z,26.93
2017-10-16T05:27:00.148Z,30.50
2017-10-16T05:29:26.838Z,29.60
2017-10-16T05:31:53.520Z,29.20
2017-10-16T05:34:21.093Z,30.10
2017-10-16T05:36:47.773Z,46.23
2017-10-16T05:39:14.444Z,31.20
2017-10-16T05:41:41.098Z,28.87
2017-10-16T05:44:07.777Z,28.93
2017-10-16T05:46:34.446Z,28.37
2017-10-16T05:49:01.097Z,28.60
2017-10-16T05:51:27.773Z,28.00
2017-10-16T05:53:54.461Z,29.00
2017-10-16T05:56:21.108Z,32.67
2017-10-16T05:58:47.763Z,30.43
2017-10-16T06:01:14.440Z,25.47
2017-10-16T06:03:41.117Z,28.67
2017-10-16T06:06:07.772Z,29.60
2017-10-16T06:08:34.452Z,35.90
2017-10-16T06:11:01.414Z,32.43
2017-10-16T06:13:28.077Z,24.20
2017-10-16T06:15:54.750Z,24.07
2017-10-16T06:18:21.411Z,25.07
2017-10-16T06:20:48.100Z,24.07
2017-10-16T06:23:14.753Z,21.63
2017-10-16T06:25:41.435Z,21.23
2017-10-16T06:28:08.093Z,21.60
2017-10-16T06:30:34.793Z,22.90
2017-10-16T06:33:01.477Z,25.10
2017-10-16T06:35:28.137Z,23.77
2017-10-16T06:37:54.820Z,24.67
2017-10-16T06:40:21.467Z,28.77
2017-10-16T06:42:48.158Z,27.13
2017-10-16T06:45:14.893Z,27.37
2017-10-16T06:47:41.549Z,27.20
2017-10-16T06:50:08.240Z,27.10
2017-10-16T06:52:34.906Z,32.40
2017-10-16T06:55:01.580Z,29.50
2017-10-16T06:57:28.220Z,27.10
2017-10-16T06:59:54.889Z,29.33
2017-10-16T07:02:21.557Z,25.47
2017-10-16T07:04:48.240Z,26.53
2017-10-16T07:07:14.885Z,24.30
2017-10-16T07:09:41.575Z,28.10
2017-10-16T07:12:08.224Z,28.20
2017-10-16T07:14:34.875Z,37.13
2017-10-16T07:17:01.551Z,24.73
2017-10-16T07:19:28.300Z,28.33
2017-10-16T07:21:55.446Z,35.97
2017-10-16T07:24:22.143Z,52.00
2017-10-16T07:26:48.837Z,53.23
2017-10-16T07:29:15.495Z,67.00
2017-10-16T07:31:42.161Z,62.17
2017-10-16T07:34:09.025Z,67.73
2017-10-16T07:36:35.698Z,72.27
2017-10-16T07:39:02.362Z,71.77
2017-10-16T07:41:29.040Z,81.50
2017-10-16T07:43:55.728Z,83.30
2017-10-16T07:46:22.395Z,85.90
2017-10-16T07:48:49.058Z,88.07
2017-10-16T07:51:15.736Z,86.77
2017-10-16T07:53:42.419Z,82.70
2017-10-16T07:56:09.072Z,82.87
2017-10-16T07:58:35.751Z,84.83
2017-10-16T08:01:02.404Z,86.47
2017-10-16T08:03:29.062Z,90.10
2017-10-16T08:05:55.737Z,93.87
2017-10-16T08:08:22.413Z,93.50
2017-10-16T08:10:49.060Z,88.53
2017-10-16T08:13:15.752Z,89.70
2017-10-16T08:15:42.402Z,84.03
2017-10-16T08:18:09.096Z,93.60
2017-10-16T08:20:35.743Z,82.33
2017-10-16T08:23:02.396Z,95.67
2017-10-16T08:25:29.066Z,84.13
2017-10-16T08:27:55.719Z,86.80
2017-10-16T08:30:22.413Z,80.20
2017-10-16T08:32:49.084Z,79.53
2017-10-16T08:35:15.794Z,79.10
2017-10-16T08:37:42.494Z,90.00
2017-10-16T08:40:09.155Z,92.57
2017-10-16T08:42:35.842Z,78.97
2017-10-16T08:45:02.500Z,76.20
2017-10-16T08:47:29.182Z,77.50
2017-10-16T08:49:55.832Z,76.57
2017-10-16T08:52:22.533Z,69.60
2017-10-16T08:54:49.191Z,70.40
2017-10-16T08:57:15.868Z,60.40
2017-10-16T08:59:42.544Z,58.80
2017-10-16T09:02:09.206Z,57.70
2017-10-16T09:04:35.917Z,52.73
2017-10-16T09:07:02.587Z,50.87
2017-10-16T09:09:29.273Z,47.03
2017-10-16T09:11:55.979Z,46.07
2017-10-16T09:14:22.636Z,41.77
2017-10-16T09:16:49.379Z,41.23
2017-10-16T09:19:16.070Z,39.57
2017-10-16T09:21:42.722Z,43.90
2017-10-16T09:24:09.382Z,39.40
2017-10-16T09:26:36.043Z,32.97
2017-10-16T09:29:02.720Z,33.57
2017-10-16T09:31:29.381Z,29.37
2017-10-16T09:33:56.044Z,30.23
2017-10-16T09:36:22.720Z,28.23
2017-10-16T09:38:49.383Z,28.37
2017-10-16T09:41:16.084Z,26.93
2017-10-16T09:43:42.735Z,28.67
2017-10-16T09:46:09.410Z,27.17
2017-10-16T09:48:36.081Z,25.27
2017-10-16T09:51:02.728Z,27.07
2017-10-16T09:53:29.411Z,24.50
2017-10-16T09:55:56.060Z,25.47
2017-10-16T09:58:22.713Z,26.40
2017-10-16T10:00:49.408Z,25.93
2017-10-16T10:03:16.072Z,24.33
2017-10-16T10:05:42.725Z,23.67
2017-10-16T10:08:09.410Z,23.27
2017-10-16T10:10:36.069Z,23.23
2017-10-16T10:13:02.755Z,23.10
2017-10-16T10:15:29.427Z,25.10
2017-10-16T10:17:56.081Z,24.67
2017-10-16T10:20:22.756Z,23.77
2017-10-16T10:22:49.410Z,24.80
2017-10-16T10:25:16.070Z,23.17
2017-10-16T10:27:42.740Z,24.97
2017-10-16T10:30:09.397Z,25.90
2017-10-16T10:32:36.368Z,24.10
2017-10-16T10:35:03.061Z,25.20
2017-10-16T10:37:29.748Z,26.97
2017-10-16T10:39:56.432Z,22.93
2017-10-16T10:42:23.080Z,19.97
2017-10-16T10:44:49.728Z,21.90
2017-10-16T10:47:16.401Z,19.20
2017-10-16T10:49:43.075Z,21.30
2017-10-16T10:52:09.725Z,25.37
2017-10-16T10:54:36.398Z,20.07
2017-10-16T10:57:03.285Z,21.17
2017-10-16T10:59:29.937Z,19.27
2017-10-16T11:01:56.632Z,18.13
2017-10-16T11:04:23.284Z,18.87
2017-10-16T11:06:49.957Z,17.30
2017-10-16T11:09:16.633Z,14.80
2017-10-16T11:11:43.288Z,15.37
2017-10-16T11:14:09.990Z,17.13
2017-10-16T11:16:36.652Z,13.47
2017-10-16T11:19:03.320Z,12.50
2017-10-16T11:21:29.976Z,13.43
2017-10-16T11:23:56.678Z,11.90
2017-10-16T11:26:23.333Z,13.10
2017-10-16T11:28:49.991Z,14.40
2017-10-16T11:31:16.663Z,13.23
2017-10-16T11:33:43.332Z,13.10
2017-10-16T11:36:09.990Z,11.77
2017-10-16T11:38:36.669Z,12.80
2017-10-16T11:41:03.349Z,12.30
2017-10-16T11:43:29.990Z,13.17
2017-10-16T11:45:56.700Z,13.93
2017-10-16T11:48:23.361Z,14.00
2017-10-16T11:50:50.006Z,13.97
2017-10-16T11:53:16.685Z,17.47
2017-10-16T11:55:43.335Z,13.70
2017-10-16T11:58:10.021Z,12.70
2017-10-16T12:00:36.695Z,11.60
2017-10-16T12:03:03.352Z,12.20
2017-10-16T12:05:30.044Z,13.10
2017-10-16T12:07:56.690Z,11.70
2017-10-16T12:10:23.342Z,12.93
2017-10-16T12:12:50.025Z,13.50
2017-10-16T12:15:16.694Z,12.97
2017-10-16T12:17:43.339Z,11.50
2017-10-16T12:20:10.199Z,11.87
2017-10-16T12:22:36.846Z,10.70
2017-10-16T12:25:03.540Z,12.37
2017-10-16T12:27:30.196Z,11.07
2017-10-16T12:29:56.961Z,10.97
2017-10-16T12:32:23.626Z,10.53
2017-10-16T12:34:50.306Z,11.67
2017-10-16T12:37:17.192Z,12.23
2017-10-16T12:39:44.038Z,11.00
2017-10-16T12:42:10.728Z,11.90
2017-10-16T12:44:37.420Z,10.10
2017-10-16T12:47:04.077Z,10.60
2017-10-16T12:49:30.744Z,9.43
2017-10-16T12:51:57.417Z,10.40
2017-10-16T12:54:24.072Z,10.00
2017-10-16T12:56:50.744Z,12.43
2017-10-16T12:59:17.387Z,10.67
2017-10-16T13:01:44.064Z,9.30
2017-10-16T13:04:10.711Z,7.10
2017-10-16T13:06:37.382Z,8.90
2017-10-16T13:09:04.070Z,8.87
2017-10-16T13:11:30.746Z,8.50
2017-10-16T13:13:57.474Z,13.43
2017-10-16T13:16:24.160Z,9.17
2017-10-16T13:18:50.808Z,7.93
2017-10-16T13:21:17.503Z,9.73
2017-10-16T13:23:44.139Z,9.17
2017-10-16T13:26:10.813Z,9.10
2017-10-16T13:28:37.465Z,9.90
2017-10-16T13:31:04.140Z,8.10
2017-10-16T13:33:30.804Z,8.40
2017-10-16T13:35:57.469Z,7.33
2017-10-16T13:38:24.108Z,6.80
2017-10-16T13:40:50.760Z,6.80
2017-10-16T13:43:17.501Z,7.07
2017-10-16T13:45:44.156Z,5.83
2017-10-16T13:48:10.800Z,7.00
2017-10-16T13:50:37.470Z,7.93
2017-10-16T13:53:04.122Z,7.33
2017-10-16T13:55:30.789Z,6.70
2017-10-16T13:57:57.460Z,5.93
2017-10-16T14:00:24.101Z,7.20
2017-10-16T14:02:50.761Z,5.87
2017-10-16T14:05:17.427Z,6.03
2017-10-16T14:07:44.098Z,5.40
2017-10-16T14:10:10.740Z,5.63
2017-10-16T14:12:37.397Z,5.83
2017-10-16T14:15:04.049Z,5.70
2017-10-16T14:17:30.727Z,5.40
2017-10-16T14:19:57.388Z,5.63
2017-10-16T14:22:24.030Z,5.60
2017-10-16T14:24:50.699Z,5.33
2017-10-16T14:27:17.362Z,5.80
2017-10-16T14:29:43.996Z,5.07
2017-10-16T14:32:10.660Z,4.63
2017-10-16T14:34:37.307Z,5.80
2017-10-16T14:37:03.951Z,6.07
2017-10-16T14:39:30.620Z,5.17
2017-10-16T14:41:57.269Z,5.17
2017-10-16T14:44:23.908Z,6.60
2017-10-16T14:46:50.585Z,6.20
2017-10-16T14:49:17.228Z,5.10
2017-10-16T14:51:43.936Z,4.70
2017-10-16T14:54:10.623Z,5.07
2017-10-16T14:56:37.269Z,5.07
2017-10-16T14:59:03.941Z,5.13
2017-10-16T15:01:30.607Z,5.47
2017-10-16T15:03:58.871Z,4.77
2017-10-16T15:06:26.829Z,6.63
2017-10-16T15:08:53.636Z,5.70
2017-10-16T15:11:20.296Z,5.43
2017-10-16T15:13:46.943Z,6.30
2017-10-16T15:16:13.954Z,6.00
2017-10-16T15:18:40.605Z,6.20
2017-10-16T15:21:07.272Z,5.60
2017-10-16T15:23:33.946Z,5.80
2017-10-16T15:26:00.595Z,6.30
2017-10-16T15:28:27.236Z,5.90
2017-10-16T15:30:53.893Z,7.30
2017-10-16T15:33:20.568Z,7.27
2017-10-16T15:35:47.243Z,20.90
2017-10-16T15:38:13.886Z,8.93
2017-10-16T15:40:40.541Z,6.87
2017-10-16T15:43:07.210Z,6.60
2017-10-16T15:45:33.864Z,6.30
2017-10-16T15:48:00.532Z,6.87
2017-10-16T15:50:27.213Z,6.17
2017-10-16T15:52:53.858Z,6.70
2017-10-16T15:55:20.538Z,7.47
2017-10-16T15:57:47.240Z,8.43
2017-10-16T16:00:13.880Z,6.80
2017-10-16T16:02:40.542Z,6.97
2017-10-16T16:05:07.216Z,7.50
2017-10-16T16:07:33.865Z,7.30
2017-10-16T16:10:00.545Z,6.67
2017-10-16T16:12:27.206Z,9.00
2017-10-16T16:14:53.863Z,8.63
2017-10-16T16:17:20.541Z,11.80
2017-10-16T16:19:47.214Z,9.60
2017-10-16T16:22:13.866Z,10.27
2017-10-16T16:24:40.529Z,9.87
2017-10-16T16:27:07.193Z,8.60
2017-10-16T16:29:33.841Z,10.20
2017-10-16T16:32:00.510Z,10.27
2017-10-16T16:34:27.173Z,8.77
2017-10-16T16:36:53.824Z,11.73
2017-10-16T16:39:20.481Z,10.40
2017-10-16T16:41:47.155Z,9.93
2017-10-16T16:44:13.804Z,9.10
2017-10-16T16:46:40.481Z,10.00
2017-10-16T16:49:07.148Z,11.77
2017-10-16T16:51:33.824Z,10.03
2017-10-16T16:54:00.467Z,10.10
2017-10-16T16:56:27.149Z,9.27
2017-10-16T16:58:53.995Z,12.07
2017-10-16T17:01:20.918Z,10.13
2017-10-16T17:03:47.568Z,9.73
2017-10-16T17:06:15.204Z,10.27
2017-10-16T17:08:41.879Z,10.70
2017-10-16T17:11:08.552Z,10.23
2017-10-16T17:13:35.217Z,11.17
2017-10-16T17:16:02.936Z,12.60
2017-10-16T17:18:29.583Z,11.50
2017-10-16T17:20:56.230Z,12.47
2017-10-16T17:23:23.066Z,12.80
2017-10-16T17:25:49.909Z,19.60
2017-10-16T17:28:16.559Z,36.83
2017-10-16T17:30:43.360Z,31.83
2017-10-16T17:33:10.223Z,16.40
2017-10-16T17:35:36.884Z,17.77
2017-10-16T17:38:04.521Z,18.27
2017-10-16T17:40:31.248Z,17.37
2017-10-16T17:42:57.911Z,16.50
2017-10-16T17:45:25.509Z,17.30
2017-10-16T17:47:53.718Z,22.23
2017-10-16T17:50:22.546Z,24.70
2017-10-16T17:52:49.325Z,21.20
2017-10-16T17:55:16.245Z,19.40
2017-10-16T17:57:42.967Z,19.20
2017-10-16T18:00:09.611Z,19.40
2017-10-16T18:02:37.203Z,18.43
2017-10-16T18:05:03.946Z,17.50
2017-10-16T18:07:30.597Z,17.37
2017-10-16T18:09:58.257Z,16.90
2017-10-16T18:12:24.901Z,20.77
2017-10-16T18:14:51.573Z,26.83
2017-10-16T18:17:18.588Z,24.50
2017-10-16T18:19:45.299Z,22.53
2017-10-16T18:22:11.940Z,33.50
2017-10-16T18:24:38.606Z,24.80
2017-10-16T18:27:05.287Z,23.00
2017-10-16T18:29:31.974Z,25.37
2017-10-16T18:31:58.633Z,24.53
2017-10-16T18:34:25.282Z,28.87
2017-10-16T18:36:51.978Z,31.37
2017-10-16T18:39:18.661Z,23.27
2017-10-16T18:41:45.356Z,28.20
2017-10-16T18:44:12.020Z,25.03
2017-10-16T18:46:38.675Z,23.00
2017-10-16T18:49:05.361Z,23.23
2017-10-16T18:51:32.029Z,22.70
2017-10-16T18:53:58.712Z,20.30
2017-10-16T18:56:25.363Z,20.10
2017-10-16T18:58:52.027Z,22.23
2017-10-16T19:01:18.708Z,22.97
2017-10-16T19:03:45.393Z,25.63
2017-10-16T19:06:12.044Z,30.47
2017-10-16T19:08:38.719Z,47.93
2017-10-16T19:11:05.375Z,40.30
2017-10-16T19:13:32.076Z,29.00
2017-10-16T19:15:58.726Z,36.23
2017-10-16T19:18:25.385Z,30.77
2017-10-16T19:20:52.120Z,39.00
2017-10-16T19:23:19.421Z,30.63
2017-10-16T19:25:46.096Z,33.57
2017-10-16T19:28:12.752Z,54.43
2017-10-16T19:30:39.416Z,38.97
2017-10-16T19:33:06.106Z,30.63
2017-10-16T19:35:32.784Z,24.60
2017-10-16T19:37:59.463Z,29.00
2017-10-16T19:40:26.159Z,27.70
2017-10-16T19:42:52.832Z,28.70
2017-10-16T19:45:19.494Z,29.47
2017-10-16T19:47:46.151Z,31.37
2017-10-16T19:50:12.869Z,35.33
2017-10-16T19:52:39.529Z,34.20
2017-10-16T19:55:06.177Z,31.30
2017-10-16T19:57:32.845Z,32.00
2017-10-16T19:59:59.501Z,35.87
2017-10-16T20:02:26.156Z,38.27
2017-10-16T20:04:52.829Z,30.83
2017-10-16T20:07:19.486Z,31.20
2017-10-16T20:09:46.129Z,32.23
2017-10-16T20:12:12.818Z,33.10
2017-10-16T20:14:39.491Z,29.23
2017-10-16T20:17:06.134Z,32.73
2017-10-16T20:19:32.844Z,31.63
2017-10-16T20:21:59.509Z,33.73
2017-10-16T20:24:26.161Z,33.33
2017-10-16T20:26:52.852Z,34.70
2017-10-16T20:29:19.494Z,32.47
2017-10-16T20:31:46.152Z,29.93
2017-10-16T20:34:12.848Z,35.67
2017-10-16T20:36:39.525Z,33.00
2017-10-16T20:39:06.198Z,29.87
2017-10-16T20:41:32.879Z,29.10
2017-10-16T20:43:59.587Z,29.77
2017-10-16T20:46:26.235Z,30.20
2017-10-16T20:48:52.884Z,31.90
2017-10-16T20:51:19.549Z,31.30
2017-10-16T20:53:46.244Z,31.43
2017-10-16T20:56:12.892Z,29.17
2017-10-16T20:58:39.569Z,27.63
2017-10-16T21:01:06.233Z,30.03
2017-10-16T21:03:33.018Z,26.77
2017-10-16T21:05:59.706Z,29.47
2017-10-16T21:08:26.365Z,26.70
2017-10-16T21:10:53.050Z,24.77
2017-10-16T21:13:19.700Z,28.80
2017-10-16T21:15:46.355Z,29.07
2017-10-16T21:18:13.033Z,29.97
2017-10-16T21:20:39.689Z,28.23
2017-10-16T21:23:06.384Z,28.17
2017-10-16T21:25:33.039Z,30.60
2017-10-16T21:27:59.725Z,31.93
2017-10-16T21:30:26.383Z,31.27
2017-10-16T21:32:53.037Z,29.83
2017-10-16T21:35:19.741Z,31.00
2017-10-16T21:37:46.408Z,25.33
2017-10-16T21:40:13.063Z,27.60
2017-10-16T21:42:39.741Z,27.17
2017-10-16T21:45:06.395Z,28.03
2017-10-16T21:47:33.166Z,27.00
2017-10-16T21:49:59.811Z,28.47
2017-10-16T21:52:26.490Z,27.93
2017-10-16T21:54:53.177Z,30.10
2017-10-16T21:57:19.852Z,29.43
2017-10-16T21:59:46.530Z,29.30
2017-10-16T22:02:13.190Z,30.97
2017-10-16T22:04:39.853Z,28.33
2017-10-16T22:07:06.504Z,23.90
2017-10-16T22:09:33.159Z,26.87
2017-10-16T22:11:59.831Z,28.63
2017-10-16T22:14:26.477Z,29.77
2017-10-16T22:16:53.167Z,34.40
2017-10-16T22:19:19.836Z,34.77
2017-10-16T22:21:46.500Z,35.23
2017-10-16T22:24:13.183Z,36.20
2017-10-16T22:26:39.856Z,33.57
2017-10-16T22:29:06.548Z,35.27
2017-10-16T22:31:33.229Z,34.87
2017-10-16T22:33:59.911Z,30.73
2017-10-16T22:36:26.793Z,34.57
2017-10-16T22:38:53.538Z,37.13
2017-10-16T22:41:20.224Z,36.67
2017-10-16T22:43:46.897Z,33.17
2017-10-16T22:46:13.543Z,32.90
2017-10-16T22:48:42.032Z,36.77
2017-10-16T22:51:09.599Z,36.97
2017-10-16T22:53:36.309Z,33.40
2017-10-16T22:56:02.978Z,37.27
2017-10-16T22:58:29.629Z,33.10
2017-10-16T23:00:56.297Z,39.00
2017-10-16T23:03:22.942Z,35.00
2017-10-16T23:05:49.621Z,28.40
2017-10-16T23:08:16.293Z,24.43
2017-10-16T23:10:42.973Z,28.97
2017-10-16T23:13:09.627Z,28.53
2017-10-16T23:15:36.333Z,24.33
2017-10-16T23:18:02.991Z,24.20
2017-10-16T23:20:29.654Z,29.57
2017-10-16T23:22:56.331Z,28.20
2017-10-16T23:25:22.992Z,30.90
2017-10-16T23:27:49.639Z,26.53
2017-10-16T23:30:16.315Z,24.77
2017-10-16T23:32:42.969Z,21.80
2017-10-16T23:35:09.640Z,24.27
2017-10-16T23:37:36.307Z,24.00
2017-10-16T23:40:03.016Z,26.23
2017-10-16T23:42:29.664Z,27.90
2017-10-16T23:44:56.325Z,25.67
2017-10-16T23:47:23.029Z,22.73
2017-10-16T23:49:49.676Z,22.30
2017-10-16T23:52:16.341Z,21.00
2017-10-16T23:54:43.012Z,20.70
2017-10-16T23:57:09.659Z,19.77
2017-10-16T23:59:36.350Z,19.10
